Time;durP1;ratioP1;P1;durP2;ratioP2;P2;SDS_P1;SDS_P2;PMS_P1;PMS_P2;Temp;Humidity;BMP_temperature;BMP_pressure;BME280_temperature;BME280_humidity;BME280_pressure;Samples;Min_cycle;Max_cycle;Signal;HPM_P1;HPM_P2
2023/12/18 00:01:55;;;;;;;17.70;11.70;;;;;;;4.32;100.00;101612.84;105696;1262;71488;-74
2023/12/18 00:04:22;;;;;;;17.00;12.80;;;;;;;4.33;100.00;101615.75;105761;1254;59887;-76
2023/12/18 00:06:50;;;;;;;19.40;13.40;;;;;;;4.33;100.00;101607.62;105887;1257;59510;-75
2023/12/18 00:09:19;;;;;;;15.90;12.20;;;;;;;4.33;100.00;101605.54;105798;1257;73484;-74
2023/12/18 00:11:46;;;;;;;17.80;11.70;;;;;;;4.34;100.00;101604.48;105886;1253;62284;-77
2023/12/18 00:14:14;;;;;;;17.30;12.90;;;;;;;4.33;100.00;101604.85;105976;1256;72655;-75
2023/12/18 00:16:42;;;;;;;17.10;12.50;;;;;;;4.34;100.00;101608.98;105894;1254;59943;-76
2023/12/18 00:19:10;;;;;;;18.30;12.30;;;;;;;4.36;100.00;101608.08;105924;1254;59515;-75
2023/12/18 00:21:38;;;;;;;18.60;12.70;;;;;;;4.37;100.00;101608.23;105976;1257;71822;-73
2023/12/18 00:24:05;;;;;;;18.90;12.20;;;;;;;4.37;100.00;101606.85;105839;1251;62743;-78
2023/12/18 00:26:34;;;;;;;22.10;12.80;;;;;;;4.38;100.00;101605.46;105926;1257;73147;-78
2023/12/18 00:29:01;;;;;;;16.10;10.50;;;;;;;4.39;100.00;101599.90;105861;1256;61058;-76
2023/12/18 00:31:29;;;;;;;16.70;12.30;;;;;;;4.39;100.00;101600.25;105869;1251;59981;-74
2023/12/18 00:33:57;;;;;;;21.00;12.70;;;;;;;4.39;100.00;101602.85;105811;1251;73070;-76
2023/12/18 00:36:24;;;;;;;18.90;13.20;;;;;;;4.39;100.00;101600.59;105926;1256;63842;-75
2023/12/18 00:38:53;;;;;;;24.30;14.10;;;;;;;4.39;100.00;101596.27;106048;1251;72645;-76
2023/12/18 00:41:20;;;;;;;18.80;12.90;;;;;;;4.39;100.00;101594.02;105855;1257;60139;-73
2023/12/18 00:43:48;;;;;;;18.30;13.00;;;;;;;4.37;100.00;101591.10;105821;1254;60727;-75
2023/12/18 00:46:18;;;;;;;19.30;12.70;;;;;;;4.35;100.00;101588.18;105708;1251;73068;-74
2023/12/18 00:48:45;;;;;;;20.60;12.90;;;;;;;4.34;100.00;101579.56;105831;1257;62783;-78
2023/12/18 00:51:13;;;;;;;19.30;13.00;;;;;;;4.33;100.00;101575.06;105861;1257;71415;-76
2023/12/18 00:53:41;;;;;;;19.70;13.80;;;;;;;4.35;100.00;101567.25;105725;1253;60898;-78
2023/12/18 00:56:09;;;;;;;18.90;13.90;;;;;;;4.35;100.00;101567.25;105993;1256;59672;-76
2023/12/18 00:58:37;;;;;;;21.40;15.40;;;;;;;4.37;100.00;101559.95;105723;1251;72949;-76
2023/12/18 01:01:04;;;;;;;24.40;14.50;;;;;;;4.38;100.00;101560.63;105928;1255;63597;-76
2023/12/18 01:03:32;;;;;;;24.60;16.60;;;;;;;4.36;100.00;101556.48;105703;1254;72858;-75
2023/12/18 01:06:04;;;;;;;22.80;14.20;;;;;;;4.36;100.00;101554.77;105435;1254;59986;-74
2023/12/18 01:08:32;;;;;;;22.40;15.50;;;;;;;4.34;100.00;101551.17;105724;1257;59637;-76
2023/12/18 01:10:59;;;;;;;24.90;15.80;;;;;;;4.35;100.00;101544.23;105782;1256;71685;-72
2023/12/18 01:13:27;;;;;;;29.60;18.20;;;;;;;4.35;100.00;101540.92;105772;1251;63079;-73
2023/12/18 01:15:56;;;;;;;26.60;16.50;;;;;;;4.35;100.00;101539.20;105680;1254;71722;-77
2023/12/18 01:18:24;;;;;;;25.90;15.50;;;;;;;4.36;100.00;101541.78;105843;1256;60848;-76
2023/12/18 01:20:52;;;;;;;18.90;12.80;;;;;;;4.36;100.00;101546.63;106106;1256;59500;-77
2023/12/18 01:23:20;;;;;;;17.20;12.60;;;;;;;4.36;100.00;101542.82;105991;1256;73034;-76
2023/12/18 01:25:48;;;;;;;19.80;12.10;;;;;;;4.37;100.00;101539.00;105916;1253;62361;-78
2023/12/18 01:28:15;;;;;;;18.00;12.90;;;;;;;4.36;100.00;101536.23;105724;1254;72663;-74
2023/12/18 01:30:43;;;;;;;14.30;12.10;;;;;;;4.37;100.00;101541.06;105781;1254;61130;-78
2023/12/18 01:33:10;;;;;;;13.00;10.70;;;;;;;4.38;100.00;101547.80;105913;1257;60165;-76
2023/12/18 01:35:38;;;;;;;14.60;10.30;;;;;;;4.38;100.00;101549.36;105872;1256;71785;-76
2023/12/18 01:38:08;;;;;;;12.30;11.00;;;;;;;4.38;100.00;101555.60;105980;1256;62548;-77
2023/12/18 01:40:36;;;;;;;14.40;10.80;;;;;;;4.38;100.00;101558.55;105845;1254;74092;-78
2023/12/18 01:43:22;;;;;;;16.40;10.50;;;;;;;4.37;100.00;101546.77;105805;1254;60100;-74
2023/12/18 01:45:55;;;;;;;16.30;10.90;;;;;;;4.38;100.00;101546.42;105775;1254;60023;-78
2023/12/18 01:48:23;;;;;;;14.40;10.40;;;;;;;4.36;100.00;101544.71;105744;1254;73554;-76
2023/12/18 01:50:55;;;;;;;17.30;11.50;;;;;;;4.36;100.00;101538.33;105714;1256;63517;-76
2023/12/18 01:53:27;;;;;;;19.70;13.20;;;;;;;4.36;100.00;101535.73;105882;1254;72711;-75
2023/12/18 01:55:56;;;;;;;20.40;13.20;;;;;;;4.36;100.00;101538.14;105854;1254;59994;-73
2023/12/18 01:58:24;;;;;;;21.20;13.50;;;;;;;4.36;100.00;101536.41;105794;1256;59573;-76
2023/12/18 02:00:52;;;;;;;21.40;14.20;;;;;;;4.36;100.00;101531.56;105776;1256;73028;-77
2023/12/18 02:03:20;;;;;;;21.60;14.00;;;;;;;4.37;100.00;101525.14;105821;1254;62546;-75
2023/12/18 02:05:47;;;;;;;21.60;13.30;;;;;;;4.38;100.00;101522.36;105845;1254;72728;-76
2023/12/18 02:08:15;;;;;;;18.20;12.30;;;;;;;4.38;100.00;101526.69;105751;1251;60812;-75
2023/12/18 02:10:42;;;;;;;23.30;15.60;;;;;;;4.38;100.00;101533.80;105867;1256;61000;-74
2023/12/18 02:13:10;;;;;;;19.80;13.20;;;;;;;4.38;100.00;101538.30;105644;1254;72692;-75
2023/12/18 02:15:39;;;;;;;24.40;14.50;;;;;;;4.37;100.00;101534.84;105857;1257;63557;-76
2023/12/18 02:18:08;;;;;;;20.10;14.10;;;;;;;4.36;100.00;101523.61;105832;1254;72678;-74
2023/12/18 02:20:36;;;;;;;23.20;15.60;;;;;;;4.36;100.00;101521.52;105755;1251;60533;-77
2023/12/18 02:23:04;;;;;;;21.40;13.90;;;;;;;4.35;100.00;101520.16;105863;1257;60565;-75
2023/12/18 02:25:31;;;;;;;20.30;13.20;;;;;;;4.35;100.00;101517.56;105855;1252;72605;-76
2023/12/18 02:27:59;;;;;;;19.10;12.40;;;;;;;4.36;100.00;101518.59;105714;1254;63742;-75
2023/12/18 02:30:27;;;;;;;20.20;13.70;;;;;;;4.37;100.00;101516.66;105620;1258;72669;-77
2023/12/18 02:32:55;;;;;;;17.60;12.40;;;;;;;4.39;100.00;101511.77;105796;1253;60568;-75
2023/12/18 02:35:22;;;;;;;20.70;12.40;;;;;;;4.40;100.00;101516.77;105823;1256;60517;-76
2023/12/18 02:37:50;;;;;;;21.40;13.90;;;;;;;4.42;100.00;101512.58;105787;1252;73833;-77
2023/12/18 02:40:18;;;;;;;15.70;10.40;;;;;;;4.43;100.00;101506.86;105924;1251;62753;-77
2023/12/18 02:42:46;;;;;;;16.60;12.60;;;;;;;4.43;100.00;101498.35;105937;1254;72661;-77
2023/12/18 02:45:13;;;;;;;19.30;13.40;;;;;;;4.44;100.00;101505.62;105975;1256;61135;-76
2023/12/18 02:47:41;;;;;;;18.20;13.60;;;;;;;4.43;100.00;101502.86;105910;1256;60373;-75
2023/12/18 02:50:10;;;;;;;16.30;11.10;;;;;;;4.44;100.00;101496.77;105788;1251;73848;-77
2023/12/18 02:52:38;;;;;;;16.20;10.90;;;;;;;4.44;100.00;101497.48;105803;1251;63608;-75
2023/12/18 02:55:05;;;;;;;15.90;10.50;;;;;;;4.43;100.00;101494.39;105895;1257;71430;-76
2023/12/18 02:57:33;;;;;;;14.90;12.20;;;;;;;4.42;100.00;101491.45;105878;1251;61389;-77
2023/12/18 03:00:01;;;;;;;15.30;11.50;;;;;;;4.43;100.00;101491.09;105835;1256;60434;-74
2023/12/18 03:02:28;;;;;;;14.70;10.60;;;;;;;4.43;100.00;101492.65;105717;1254;72713;-77
2023/12/18 03:04:56;;;;;;;14.80;10.70;;;;;;;4.44;100.00;101493.32;105881;1251;62528;-75
2023/12/18 03:07:23;;;;;;;13.20;10.10;;;;;;;4.47;100.00;101494.13;106165;1256;72931;-74
2023/12/18 03:09:51;;;;;;;18.30;13.40;;;;;;;4.49;100.00;101494.77;107087;1252;60985;-75
2023/12/18 03:12:18;;;;;;;16.50;12.10;;;;;;;4.49;100.00;101493.40;106654;1256;59665;-73
2023/12/18 03:14:46;;;;;;;14.30;10.80;;;;;;;4.48;100.00;101491.51;106003;1256;73776;-74
2023/12/18 03:17:14;;;;;;;15.00;10.30;;;;;;;4.48;100.00;101496.35;105965;1254;63549;-76
2023/12/18 03:19:41;;;;;;;14.60;10.40;;;;;;;4.49;100.00;101494.61;105752;1251;72586;-78
2023/12/18 03:22:09;;;;;;;14.00;10.60;;;;;;;4.50;100.00;101488.52;105909;1251;60890;-77
2023/12/18 03:24:39;;;;;;;13.90;10.00;;;;;;;4.50;100.00;101483.67;105920;1251;60527;-78
2023/12/18 03:27:07;;;;;;;16.20;10.90;;;;;;;4.49;100.00;101487.85;105950;1251;72367;-76
2023/12/18 03:29:34;;;;;;;14.50;10.80;;;;;;;4.49;100.00;101488.55;105789;1256;63479;-75
2023/12/18 03:32:03;;;;;;;16.60;11.30;;;;;;;4.51;100.00;101492.66;105912;1251;72680;-75
2023/12/18 03:34:31;;;;;;;16.80;11.30;;;;;;;4.52;100.00;101497.15;105713;1252;61611;-75
2023/12/18 03:36:59;;;;;;;13.90;10.30;;;;;;;4.50;100.00;101492.33;105790;1254;60414;-76
2023/12/18 03:39:27;;;;;;;14.80;10.30;;;;;;;4.49;100.00;101490.61;106031;1254;73862;-77
2023/12/18 03:41:57;;;;;;;16.90;10.20;;;;;;;4.49;100.00;101481.44;105852;1256;63550;-77
2023/12/18 03:44:24;;;;;;;12.50;9.60;;;;;;;4.49;100.00;101477.30;105980;1256;71632;-79
2023/12/18 03:46:52;;;;;;;11.30;9.60;;;;;;;4.49;100.00;101476.94;105921;1256;60620;-77
2023/12/18 03:49:20;;;;;;;11.50;8.60;;;;;;;4.47;100.00;101470.92;105876;1256;60381;-76
2023/12/18 03:51:48;;;;;;;9.70;8.20;;;;;;;4.47;100.00;101466.42;105768;1251;72567;-78
2023/12/18 03:54:15;;;;;;;10.90;8.70;;;;;;;4.46;100.00;101458.31;105730;1251;63544;-77
2023/12/18 03:56:43;;;;;;;12.10;7.90;;;;;;;4.44;100.00;101456.28;105763;1257;72678;-75
2023/12/18 03:59:11;;;;;;;10.00;8.40;;;;;;;4.43;100.00;101450.77;105733;1254;60540;-77
2023/12/18 04:01:39;;;;;;;7.50;6.40;;;;;;;4.41;100.00;101454.95;105707;1256;60811;-78
2023/12/18 04:04:07;;;;;;;7.80;6.40;;;;;;;4.39;100.00;101454.13;105781;1251;73372;-77
2023/12/18 04:06:35;;;;;;;8.10;6.70;;;;;;;4.36;100.00;101448.30;105817;1251;62501;-78
2023/12/18 04:09:03;;;;;;;7.70;5.60;;;;;;;4.36;100.00;101445.70;105961;1251;72740;-76
2023/12/18 04:11:32;;;;;;;7.10;5.90;;;;;;;4.36;100.00;101448.48;105882;1257;60511;-77
2023/12/18 04:13:59;;;;;;;6.20;5.40;;;;;;;4.37;100.00;101454.16;105823;1254;60517;-76
2023/12/18 04:16:27;;;;;;;7.40;6.30;;;;;;;4.39;100.00;101458.81;105773;1256;73892;-77
2023/12/18 04:18:54;;;;;;;7.10;5.20;;;;;;;4.39;100.00;101456.38;105786;1256;63866;-79
2023/12/18 04:21:22;;;;;;;8.60;6.50;;;;;;;4.40;100.00;101451.16;105850;1251;72659;-76
2023/12/18 04:23:50;;;;;;;8.60;6.10;;;;;;;4.41;100.00;101450.44;105857;1256;60530;-78
2023/12/18 04:26:17;;;;;;;8.60;5.90;;;;;;;4.44;100.00;101449.88;105676;1251;60565;-77
2023/12/18 04:28:45;;;;;;;7.70;6.00;;;;;;;4.44;100.00;101450.38;105828;1257;73818;-78
2023/12/18 04:31:18;;;;;;;6.40;5.30;;;;;;;4.45;100.00;101448.29;105758;1251;64001;-76
2023/12/18 04:33:45;;;;;;;7.20;5.70;;;;;;;4.46;100.00;101446.52;105821;1251;72754;-77
2023/12/18 04:36:16;;;;;;;5.90;5.10;;;;;;;4.48;100.00;101444.08;105769;1254;60925;-78
2023/12/18 04:38:45;;;;;;;6.40;4.80;;;;;;;4.49;100.00;101440.05;105865;1251;60539;-78
2023/12/18 04:41:18;;;;;;;7.60;5.50;;;;;;;4.49;100.00;101439.02;105947;1253;74242;-77
2023/12/18 04:43:46;;;;;;;6.00;4.80;;;;;;;4.49;100.00;101433.65;105750;1254;63610;-76
2023/12/18 04:46:14;;;;;;;6.10;5.30;;;;;;;4.50;100.00;101428.96;105879;1256;72651;-77
2023/12/18 04:48:42;;;;;;;7.80;5.90;;;;;;;4.50;100.00;101428.98;105893;1254;60900;-77
2023/12/18 04:51:10;;;;;;;5.20;4.70;;;;;;;4.51;100.00;101427.02;105826;1253;60921;-78
2023/12/18 04:53:37;;;;;;;6.60;5.20;;;;;;;4.54;100.00;101430.95;105896;1257;72702;-78
2023/12/18 04:56:06;;;;;;;5.20;4.70;;;;;;;4.56;100.00;101433.67;105909;1256;63518;-76
2023/12/18 04:58:36;;;;;;;6.90;5.30;;;;;;;4.59;100.00;101431.36;105742;1256;72737;-79
2023/12/18 05:01:04;;;;;;;7.70;5.40;;;;;;;4.61;100.00;101430.45;105743;1256;61132;-77
2023/12/18 05:03:32;;;;;;;8.80;6.50;;;;;;;4.61;100.00;101425.79;105754;1251;60594;-76
2023/12/18 05:06:02;;;;;;;7.60;5.90;;;;;;;4.60;100.00;101428.91;105827;1252;73836;-76
2023/12/18 05:08:30;;;;;;;7.20;5.60;;;;;;;4.60;100.00;101426.33;105761;1256;62181;-78
2023/12/18 05:23:07;;;;;;;7.80;6.10;;;;;;;4.69;100.00;101419.70;102787;1293;601019;-78
2023/12/18 05:25:35;;;;;;;7.80;5.90;;;;;;;4.67;100.00;101425.63;105631;1263;59750;-78
2023/12/18 05:28:03;;;;;;;8.10;5.90;;;;;;;4.70;100.00;101424.20;105421;1256;60096;-79
2023/12/18 05:30:36;;;;;;;12.10;8.20;;;;;;;4.73;100.00;101420.14;105486;1256;70949;-79
2023/12/18 05:33:04;;;;;;;15.40;9.10;;;;;;;4.73;100.00;101418.41;105366;1257;62254;-79
2023/12/18 05:35:32;;;;;;;16.40;11.40;;;;;;;4.72;100.00;101418.27;105299;1258;72529;-77
2023/12/18 05:38:00;;;;;;;12.20;8.60;;;;;;;4.72;100.00;101418.61;105616;1259;60621;-78
2023/12/18 05:40:27;;;;;;;7.40;6.50;;;;;;;4.71;100.00;101416.55;105686;1255;60103;-79
2023/12/18 05:42:55;;;;;;;9.60;6.80;;;;;;;4.72;100.00;101416.35;105448;1255;70928;-79
2023/12/18 05:45:23;;;;;;;9.50;6.70;;;;;;;4.72;100.00;101416.70;105747;1260;63014;-78
2023/12/18 05:47:52;;;;;;;8.70;6.90;;;;;;;4.73;100.00;101417.34;105718;1259;72687;-77
2023/12/18 05:50:20;;;;;;;9.30;7.20;;;;;;;4.74;100.00;101417.52;105695;1260;60910;-78
2023/12/18 05:52:47;;;;;;;8.60;6.50;;;;;;;4.75;100.00;101415.95;105794;1253;59742;-78
2023/12/18 05:55:15;;;;;;;10.60;7.20;;;;;;;4.75;100.00;101416.96;109437;1252;73629;-76
2023/12/18 05:57:43;;;;;;;8.20;6.50;;;;;;;4.76;100.00;101409.15;109487;1253;62778;-77
2023/12/18 06:00:12;;;;;;;9.00;6.40;;;;;;;4.76;100.00;101406.90;109559;1254;71671;-77
2023/12/18 06:02:40;;;;;;;10.40;7.00;;;;;;;4.77;100.00;101404.27;109367;1261;62405;-77
2023/12/18 06:05:08;;;;;;;9.30;5.90;;;;;;;4.76;100.00;101412.96;109132;1260;58762;-77
2023/12/18 06:07:36;;;;;;;8.90;6.40;;;;;;;4.77;100.00;101420.04;109070;1260;71011;-78
2023/12/18 06:10:08;;;;;;;8.10;6.90;;;;;;;4.79;100.00;101419.13;109482;1253;62462;-77
2023/12/18 06:12:36;;;;;;;8.90;6.90;;;;;;;4.81;100.00;101418.41;109503;1253;72868;-76
2023/12/18 06:15:05;;;;;;;8.30;6.60;;;;;;;4.83;100.00;101420.95;109465;1254;59605;-78
2023/12/18 06:17:33;;;;;;;9.30;6.40;;;;;;;4.86;100.00;101424.70;109479;1253;58817;-77
2023/12/18 06:20:00;;;;;;;7.90;6.50;;;;;;;4.87;100.00;101423.10;109471;1253;71735;-77
2023/12/18 06:22:28;;;;;;;10.80;7.10;;;;;;;4.89;100.00;101423.77;109380;1253;63521;-78
2023/12/18 06:24:58;;;;;;;7.60;6.20;;;;;;;4.91;100.00;101424.06;109472;1253;72747;-77
2023/12/18 06:27:28;;;;;;;7.70;6.20;;;;;;;4.93;100.00;101424.70;109447;1254;61131;-78
2023/12/18 06:29:56;;;;;;;9.60;7.60;;;;;;;4.96;100.00;101430.70;109485;1253;58952;-77
2023/12/18 06:32:26;;;;;;;10.10;7.10;;;;;;;4.98;100.00;101425.63;109485;1253;71772;-77
2023/12/18 06:34:54;;;;;;;10.20;7.60;;;;;;;5.00;100.00;101426.95;109496;1253;63725;-76
2023/12/18 06:37:23;;;;;;;7.40;6.10;;;;;;;5.03;100.00;101428.29;109448;1258;71595;-77
2023/12/18 06:39:50;;;;;;;8.70;7.40;;;;;;;5.05;100.00;101427.55;109456;1254;59640;-76
2023/12/18 06:42:19;;;;;;;11.80;8.10;;;;;;;5.07;100.00;101427.48;109567;1253;59514;-77
2023/12/18 06:44:46;;;;;;;9.60;7.20;;;;;;;5.08;100.00;101429.54;109501;1254;72114;-75
2023/12/18 06:47:14;;;;;;;8.10;6.30;;;;;;;5.10;100.00;101432.09;109528;1254;61475;-77
2023/12/18 06:49:41;;;;;;;8.30;6.80;;;;;;;5.13;100.00;101428.55;109455;1254;71143;-77
2023/12/18 06:52:09;;;;;;;9.30;6.70;;;;;;;5.15;100.00;101428.85;109469;1253;60622;-76
2023/12/18 06:54:37;;;;;;;8.60;6.80;;;;;;;5.17;100.00;101428.47;109534;1254;60098;-76
2023/12/18 06:57:05;;;;;;;7.00;6.10;;;;;;;5.17;100.00;101427.23;109484;1254;73068;-77
2023/12/18 06:59:33;;;;;;;10.20;7.60;;;;;;;5.18;100.00;101423.06;109489;1254;64546;-77
2023/12/18 07:02:00;;;;;;;8.90;7.40;;;;;;;5.19;100.00;101420.09;109604;1254;71405;-75
2023/12/18 07:04:28;;;;;;;9.90;7.50;;;;;;;5.20;100.00;101412.95;109471;1254;61064;-76
2023/12/18 07:06:56;;;;;;;9.60;7.70;;;;;;;5.20;100.00;101405.33;109515;1253;60471;-78
2023/12/18 07:09:24;;;;;;;10.30;8.40;;;;;;;5.21;100.00;101397.86;109511;1254;72878;-78
2023/12/18 07:11:53;;;;;;;10.80;8.20;;;;;;;5.23;100.00;101394.52;109472;1253;62904;-77
2023/12/18 07:14:20;;;;;;;7.00;6.30;;;;;;;5.25;100.00;101391.16;109472;1254;72924;-76
2023/12/18 07:16:48;;;;;;;6.40;5.80;;;;;;;5.27;100.00;101387.98;109471;1254;60962;-77
2023/12/18 07:19:18;;;;;;;8.00;5.80;;;;;;;5.30;100.00;101386.19;109487;1254;60316;-76
2023/12/18 07:21:46;;;;;;;7.10;6.10;;;;;;;5.30;100.00;101383.05;109370;1254;73120;-78
2023/12/18 07:24:13;;;;;;;8.00;5.70;;;;;;;5.33;100.00;101378.66;109503;1254;63933;-76
2023/12/18 07:26:41;;;;;;;8.20;6.00;;;;;;;5.34;100.00;101376.71;109469;1254;71519;-77
2023/12/18 07:29:09;;;;;;;9.80;6.90;;;;;;;5.35;100.00;101375.81;109481;1254;60883;-77
2023/12/18 07:31:37;;;;;;;8.90;5.60;;;;;;;5.35;100.00;101375.98;109510;1253;59332;-76
2023/12/18 07:34:05;;;;;;;7.40;6.10;;;;;;;5.36;100.00;101377.19;109489;1254;73762;-77
2023/12/18 07:36:35;;;;;;;14.20;7.50;;;;;;;5.38;100.00;101374.69;109474;1253;61809;-76
2023/12/18 07:39:03;;;;;;;7.70;6.00;;;;;;;5.43;100.00;101375.45;109464;1254;71649;-78
2023/12/18 07:41:33;;;;;;;7.00;5.30;;;;;;;5.44;100.00;101374.37;109437;1254;59571;-78
2023/12/18 07:44:14;;;;;;;7.40;5.80;;;;;;;5.47;100.00;101370.66;109201;1254;58838;-78
2023/12/18 07:46:42;;;;;;;8.50;6.20;;;;;;;5.49;100.00;101367.13;109494;1253;73039;-77
2023/12/18 07:49:10;;;;;;;8.00;5.90;;;;;;;5.51;100.00;101363.26;109512;1254;63520;-77
2023/12/18 07:51:38;;;;;;;8.80;5.90;;;;;;;5.55;100.00;101361.41;109468;1253;72359;-76
2023/12/18 07:54:06;;;;;;;12.20;8.60;;;;;;;5.60;100.00;101360.41;109476;1254;59649;-77
2023/12/18 07:56:33;;;;;;;9.70;7.10;;;;;;;5.61;100.00;101359.17;109561;1253;60108;-76
2023/12/18 07:59:02;;;;;;;9.90;7.40;;;;;;;5.63;100.00;101356.85;109493;1254;71980;-78
2023/12/18 08:01:30;;;;;;;9.10;6.70;;;;;;;5.66;100.00;101352.80;109491;1253;62289;-76
2023/12/18 08:04:00;;;;;;;7.20;5.70;;;;;;;5.68;100.00;101353.25;109474;1254;72721;-76
2023/12/18 08:06:28;;;;;;;9.20;6.70;;;;;;;5.70;100.00;101351.63;109493;1254;59993;-76
2023/12/18 08:08:55;;;;;;;10.20;7.10;;;;;;;5.74;100.00;101348.41;109521;1254;58823;-77
2023/12/18 08:11:23;;;;;;;9.80;6.50;;;;;;;5.77;100.00;101341.71;109474;1254;72064;-76
2023/12/18 08:13:50;;;;;;;10.10;6.90;;;;;;;5.80;100.00;101335.23;109538;1254;62627;-77
2023/12/18 08:16:18;;;;;;;11.60;8.00;;;;;;;5.81;100.00;101333.61;109494;1254;71147;-76
2023/12/18 08:18:47;;;;;;;8.70;7.40;;;;;;;5.83;100.00;101328.70;109501;1253;60994;-76
2023/12/18 08:21:17;;;;;;;9.50;6.70;;;;;;;5.84;100.00;101330.07;109494;1253;58785;-76
2023/12/18 08:23:45;;;;;;;9.60;7.10;;;;;;;5.86;100.00;101330.73;109475;1254;72838;-76
2023/12/18 08:26:12;;;;;;;8.90;6.80;;;;;;;5.87;100.00;101329.48;109515;1253;62285;-79
2023/12/18 08:28:43;;;;;;;8.40;7.30;;;;;;;5.88;100.00;101322.52;109504;1254;71368;-76
2023/12/18 08:31:12;;;;;;;9.50;7.10;;;;;;;5.88;100.00;101318.86;109499;1254;59909;-76
2023/12/18 08:33:40;;;;;;;8.20;6.80;;;;;;;5.90;100.00;101317.42;109510;1254;58986;-75
2023/12/18 08:36:08;;;;;;;11.70;9.10;;;;;;;5.91;100.00;101320.14;109465;1254;72000;-75
2023/12/18 08:38:35;;;;;;;13.10;9.70;;;;;;;5.90;100.00;101318.29;109495;1253;64492;-77
2023/12/18 08:41:03;;;;;;;10.50;8.50;;;;;;;5.90;100.00;101317.73;109484;1253;71254;-76
2023/12/18 08:43:31;;;;;;;10.60;9.10;;;;;;;5.91;100.00;101316.16;109445;1254;59635;-76
2023/12/18 08:45:59;;;;;;;14.20;10.00;;;;;;;5.89;100.00;101317.27;109507;1253;58700;-75
2023/12/18 08:48:27;;;;;;;12.40;8.80;;;;;;;5.91;100.00;101320.32;109477;1254;72829;-76
2023/12/18 08:50:55;;;;;;;11.60;8.70;;;;;;;5.92;100.00;101321.87;109515;1254;62268;-77
2023/12/18 08:53:22;;;;;;;10.40;8.30;;;;;;;5.93;100.00;101318.73;109471;1254;72707;-77
2023/12/18 08:55:50;;;;;;;17.60;10.40;;;;;;;5.95;100.00;101318.86;109509;1254;59666;-75
2023/12/18 08:58:20;;;;;;;12.60;9.30;;;;;;;5.97;100.00;101312.89;109547;1253;58790;-76
2023/12/18 09:00:48;;;;;;;12.20;9.30;;;;;;;5.97;100.00;101309.77;109480;1254;73122;-76
2023/12/18 09:03:16;;;;;;;12.70;9.60;;;;;;;5.98;100.00;101307.48;109502;1253;62267;-77
2023/12/18 09:05:43;;;;;;;14.30;9.30;;;;;;;6.00;100.00;101303.95;109458;1254;71292;-76
2023/12/18 09:08:13;;;;;;;13.10;10.00;;;;;;;6.01;100.00;101308.27;109464;1254;59432;-77
2023/12/18 09:10:41;;;;;;;14.90;11.20;;;;;;;6.02;100.00;101303.02;109582;1254;58410;-77
2023/12/18 09:13:08;;;;;;;15.10;10.80;;;;;;;6.03;100.00;101303.70;109489;1254;75362;-77
2023/12/18 09:15:40;;;;;;;17.10;11.50;;;;;;;6.06;100.00;101302.23;109503;1254;64108;-76
2023/12/18 09:18:08;;;;;;;16.70;11.40;;;;;;;6.08;100.00;101306.16;109467;1254;73548;-77
2023/12/18 09:20:36;;;;;;;16.50;11.70;;;;;;;6.09;100.00;101310.80;109466;1254;63360;-77
2023/12/18 09:23:08;;;;;;;17.60;12.00;;;;;;;6.10;100.00;101304.54;109535;1253;58918;-77
2023/12/18 09:25:35;;;;;;;19.60;11.80;;;;;;;6.11;100.00;101299.61;109480;1254;71102;-76
2023/12/18 09:28:03;;;;;;;16.30;12.10;;;;;;;6.13;100.00;101295.92;109492;1254;62845;-77
2023/12/18 09:30:31;;;;;;;18.30;11.70;;;;;;;6.17;100.00;101293.89;109491;1254;72178;-75
2023/12/18 09:32:59;;;;;;;15.10;12.00;;;;;;;6.20;100.00;101294.48;109455;1253;59613;-75
2023/12/18 09:35:27;;;;;;;18.40;12.10;;;;;;;6.22;100.00;101295.64;109490;1254;60188;-76
2023/12/18 09:37:54;;;;;;;19.20;11.50;;;;;;;6.24;100.00;101294.54;109470;1254;73923;-76
2023/12/18 09:40:22;;;;;;;18.00;12.10;;;;;;;6.27;100.00;101298.64;109479;1254;63578;-74
2023/12/18 09:42:54;;;;;;;17.90;12.00;;;;;;;6.28;100.00;101300.31;109493;1257;72492;-77
2023/12/18 09:45:23;;;;;;;17.60;12.60;;;;;;;6.32;100.00;101300.90;109480;1253;59729;-75
2023/12/18 09:47:52;;;;;;;17.50;11.90;;;;;;;6.35;100.00;101300.65;109494;1253;60039;-75
2023/12/18 09:50:19;;;;;;;17.80;13.30;;;;;;;6.37;100.00;101300.22;109483;1254;76029;-75
2023/12/18 09:53:07;;;;;;;18.60;13.80;;;;;;;6.38;100.00;101296.86;109506;1254;63953;-75
2023/12/18 09:55:36;;;;;;;18.00;12.60;;;;;;;6.40;100.00;101289.34;109465;1257;73787;-75
2023/12/18 09:58:06;;;;;;;18.00;13.60;;;;;;;6.41;100.00;101282.70;109378;1254;59990;-78
2023/12/18 10:00:34;;;;;;;22.20;14.80;;;;;;;6.42;100.00;101281.13;109394;1253;60426;-76
2023/12/18 10:03:02;;;;;;;29.10;15.00;;;;;;;6.41;100.00;101283.23;109494;1254;73897;-76
2023/12/18 10:05:30;;;;;;;25.10;14.20;;;;;;;6.42;100.00;101282.69;109512;1254;63682;-78
2023/12/18 10:08:01;;;;;;;22.50;14.30;;;;;;;6.40;100.00;101283.78;109490;1254;71693;-76
2023/12/18 10:10:29;;;;;;;24.80;16.10;;;;;;;6.40;100.00;101285.86;109493;1254;59845;-76
2023/12/18 10:15:42;;;;;;;24.80;16.50;;;;;;;6.47;100.00;101286.01;102751;1290;602646;-75
2023/12/18 10:18:11;;;;;;;25.20;15.90;;;;;;;6.48;100.00;101280.77;105072;1264;59437;-77
2023/12/18 10:20:41;;;;;;;23.00;15.10;;;;;;;6.49;100.00;101279.19;105187;1269;59944;-76
2023/12/18 10:23:09;;;;;;;25.80;15.60;;;;;;;6.48;100.00;101279.55;105217;1264;72165;-76
2023/12/18 10:25:36;;;;;;;26.80;14.90;;;;;;;6.48;100.00;101275.56;105264;1269;65371;-77
2023/12/18 10:28:04;;;;;;;21.30;14.70;;;;;;;6.49;100.00;101285.24;104856;1270;184178;-78
2023/12/18 10:30:31;;;;;;;23.10;15.00;;;;;;;6.49;100.00;101281.61;105120;1267;61332;-78
2023/12/18 10:32:59;;;;;;;22.90;14.50;;;;;;;6.48;100.00;101277.98;105133;1262;59349;-77
2023/12/18 10:35:27;;;;;;;21.50;14.40;;;;;;;6.48;100.00;101276.93;105975;1251;72196;-78
2023/12/18 10:37:55;;;;;;;25.50;14.40;;;;;;;6.48;100.00;101270.70;106039;1253;63862;-77
2023/12/18 10:40:23;;;;;;;20.60;13.70;;;;;;;6.46;100.00;101265.21;106125;1254;72621;-78
2023/12/18 10:42:56;;;;;;;22.70;14.60;;;;;;;6.43;100.00;101263.20;106072;1251;59929;-76
2023/12/18 10:45:23;;;;;;;25.50;15.50;;;;;;;6.40;100.00;101267.13;106152;1253;61370;-78
2023/12/18 10:47:49;;;;;;;24.90;13.30;;;;;;;6.36;100.00;101266.20;106105;1257;73395;-78
2023/12/18 10:50:16;;;;;;;26.10;15.80;;;;;;;6.35;100.00;101266.23;106670;1250;63026;-77
2023/12/18 10:52:46;;;;;;;21.90;15.20;;;;;;;6.35;100.00;101264.48;107178;1253;72716;-77
2023/12/18 10:55:14;;;;;;;22.40;15.00;;;;;;;6.35;100.00;101265.20;106411;1256;61168;-79
2023/12/18 10:57:42;;;;;;;19.50;14.90;;;;;;;6.36;100.00;101265.52;106050;1253;61051;-79
2023/12/18 11:00:13;;;;;;;23.50;15.50;;;;;;;6.37;100.00;101262.19;106060;1257;74212;-80
2023/12/18 11:02:41;;;;;;;26.50;16.50;;;;;;;6.37;100.00;101261.12;106157;1251;63792;-78
2023/12/18 11:05:08;;;;;;;28.30;17.90;;;;;;;6.38;100.00;101265.60;106043;1251;70581;-78
2023/12/18 11:07:35;;;;;;;24.90;17.20;;;;;;;6.37;100.00;101265.46;105954;1251;59663;-77
2023/12/18 11:10:02;;;;;;;22.80;15.40;;;;;;;6.34;100.00;101263.33;105883;1251;60519;-79
2023/12/18 11:12:29;;;;;;;22.50;15.60;;;;;;;6.32;100.00;101264.94;105928;1251;73832;-77
2023/12/18 11:15:19;;;;;;;20.50;14.10;;;;;;;6.30;100.00;101262.41;106008;1251;62900;-78
2023/12/18 11:17:56;;;;;;;25.50;15.80;;;;;;;6.30;100.00;101263.11;105944;1251;72760;-78
2023/12/18 11:20:34;;;;;;;22.60;15.80;;;;;;;6.30;100.00;101258.60;106154;1251;61218;-78
2023/12/18 11:23:05;;;;;;;18.20;15.70;;;;;;;6.29;100.00;101252.38;106099;1251;59502;-79
2023/12/18 11:25:37;;;;;;;17.90;14.70;;;;;;;6.30;100.00;101254.25;106068;1252;72261;-78
2023/12/18 11:28:05;;;;;;;21.10;14.20;;;;;;;6.30;100.00;101254.61;106056;1253;63857;-78